createdAt,value
2022-12-01T00:00:04.522Z,2.30
2022-12-01T00:02:32.107Z,2.30
2022-12-01T00:05:00.845Z,2.30
2022-12-01T00:07:28.241Z,2.40
2022-12-01T00:10:14.316Z,2.30
2022-12-01T00:12:43.554Z,2.30
2022-12-01T00:15:11.454Z,2.40
2022-12-01T00:17:39.000Z,2.30
2022-12-01T00:20:08.747Z,2.30
2022-12-01T00:22:36.005Z,2.30
2022-12-01T00:25:03.923Z,2.30
2022-12-01T00:27:31.170Z,2.20
2022-12-01T00:29:58.455Z,2.30
2022-12-01T00:32:25.788Z,2.20
2022-12-01T00:34:53.054Z,2.20
2022-12-01T00:37:21.709Z,2.20
2022-12-01T00:39:49.234Z,2.20
2022-12-01T00:42:16.776Z,2.20
2022-12-01T00:44:44.724Z,2.20
2022-12-01T00:47:12.006Z,2.30
2022-12-01T00:49:39.397Z,2.20
2022-12-01T00:52:06.681Z,2.20
2022-12-01T00:54:35.296Z,2.20
2022-12-01T00:57:02.718Z,2.20
2022-12-01T00:59:30.019Z,2.20
2022-12-01T01:01:57.344Z,2.20
2022-12-01T01:04:24.624Z,2.20
2022-12-01T01:06:52.500Z,2.20
2022-12-01T01:09:19.849Z,2.20
2022-12-01T01:11:48.520Z,2.20
2022-12-01T01:14:15.936Z,2.20
2022-12-01T01:16:43.312Z,2.20
2022-12-01T01:19:10.734Z,2.20
2022-12-01T01:21:39.027Z,2.20
2022-12-01T01:24:06.864Z,2.20
2022-12-01T01:26:35.486Z,2.20
2022-12-01T01:29:07.651Z,2.20
2022-12-01T01:31:35.090Z,2.20
2022-12-01T01:34:03.345Z,2.30
2022-12-01T01:36:31.449Z,2.20
2022-12-01T01:38:58.713Z,2.30
2022-12-01T01:41:26.055Z,2.30
2022-12-01T01:43:55.355Z,2.30
2022-12-01T01:46:25.801Z,2.30
2022-12-01T01:48:56.457Z,2.30
2022-12-01T01:51:27.884Z,2.30
2022-12-01T01:53:58.729Z,2.30
2022-12-01T01:56:26.023Z,2.20
2022-12-01T01:58:53.802Z,2.30
2022-12-01T02:01:21.248Z,2.20
2022-12-01T02:03:52.411Z,2.20
2022-12-01T02:06:20.386Z,2.20
2022-12-01T02:08:47.740Z,2.20
2022-12-01T02:11:33.368Z,2.20
2022-12-01T02:14:08.789Z,2.20
2022-12-01T02:16:46.691Z,2.20
2022-12-01T02:19:43.053Z,2.20
2022-12-01T02:22:22.135Z,2.10
2022-12-01T02:25:01.707Z,2.10
2022-12-01T02:27:49.161Z,2.00
2022-12-01T02:30:17.743Z,2.00
2022-12-01T02:33:00.403Z,2.00
2022-12-01T02:35:34.244Z,2.00
2022-12-01T02:38:12.848Z,2.00
2022-12-01T02:40:43.562Z,2.00
2022-12-01T02:43:17.310Z,2.10
2022-12-01T02:45:51.427Z,2.10
2022-12-01T02:48:25.083Z,2.00
2022-12-01T02:50:55.412Z,2.00
2022-12-01T02:53:22.831Z,2.00
2022-12-01T02:55:52.685Z,1.90
2022-12-01T02:58:20.665Z,2.00
2022-12-01T03:01:06.913Z,2.00
2022-12-01T03:03:54.289Z,2.00
2022-12-01T03:06:31.245Z,2.00
2022-12-01T03:09:09.246Z,1.90
2022-12-01T03:11:44.904Z,1.80
2022-12-01T03:14:22.814Z,1.80
2022-12-01T03:16:52.258Z,1.80
2022-12-01T03:19:29.387Z,1.80
2022-12-01T03:22:02.039Z,1.80
2022-12-01T03:24:33.013Z,1.80
2022-12-01T03:27:03.192Z,1.80
2022-12-01T03:29:33.288Z,1.80
2022-12-01T03:32:06.462Z,1.80
2022-12-01T03:34:38.932Z,1.90
2022-12-01T03:37:10.391Z,1.90
2022-12-01T03:39:40.047Z,1.90
2022-12-01T03:42:13.443Z,1.70
2022-12-01T03:44:47.644Z,1.70
2022-12-01T03:47:17.489Z,1.80
2022-12-01T03:49:47.682Z,1.80
2022-12-01T03:52:23.468Z,1.80
2022-12-01T03:55:03.577Z,1.80
2022-12-01T03:57:35.144Z,1.80
2022-12-01T04:00:03.245Z,1.80
2022-12-01T04:02:40.524Z,1.80
2022-12-01T04:05:09.435Z,1.70
2022-12-01T04:07:36.858Z,1.70
2022-12-01T04:10:05.275Z,1.70
2022-12-01T04:12:35.679Z,1.70
2022-12-01T04:15:05.394Z,1.70
2022-12-01T04:17:32.697Z,1.80
2022-12-01T04:20:00.385Z,1.80
2022-12-01T04:22:29.047Z,1.80
2022-12-01T04:24:56.295Z,1.70
2022-12-01T04:27:23.675Z,1.60
2022-12-01T04:29:51.187Z,1.60
2022-12-01T04:32:18.761Z,1.60
2022-12-01T04:34:46.054Z,1.60
2022-12-01T04:37:13.323Z,1.60
2022-12-01T04:39:44.855Z,1.70
2022-12-01T04:42:12.119Z,1.60
2022-12-01T04:44:39.338Z,1.60
2022-12-01T04:47:07.088Z,1.70
2022-12-01T04:49:35.216Z,1.60
2022-12-01T04:52:02.615Z,1.70
2022-12-01T04:54:30.123Z,1.70
2022-12-01T04:56:58.696Z,1.70
2022-12-01T04:59:25.928Z,1.70
2022-12-01T05:01:53.312Z,1.70
2022-12-01T05:04:20.626Z,1.80
2022-12-01T05:06:47.960Z,1.80
2022-12-01T05:09:17.769Z,1.70
2022-12-01T05:11:45.364Z,1.70
2022-12-01T05:14:14.114Z,1.70
2022-12-01T05:16:41.467Z,1.70
2022-12-01T05:19:27.830Z,1.70
2022-12-01T05:21:55.160Z,1.70
2022-12-01T05:24:22.484Z,1.60
2022-12-01T05:26:49.777Z,1.60
2022-12-01T05:29:18.472Z,1.60
2022-12-01T05:31:46.142Z,1.70
2022-12-01T05:34:13.513Z,1.70
2022-12-01T05:36:40.829Z,1.70
2022-12-01T05:39:08.153Z,1.60
2022-12-01T05:41:35.444Z,1.60
2022-12-01T05:44:03.261Z,1.70
2022-12-01T05:46:31.990Z,1.60
2022-12-01T05:48:59.342Z,1.60
2022-12-01T05:51:26.676Z,1.50
2022-12-01T05:53:53.977Z,1.50
2022-12-01T05:56:21.812Z,1.50
2022-12-01T05:58:49.142Z,1.50
2022-12-01T06:01:16.456Z,1.60
2022-12-01T06:03:45.099Z,1.60
2022-12-01T06:06:12.394Z,1.60
2022-12-01T06:08:39.787Z,1.60
2022-12-01T06:11:07.057Z,1.70
2022-12-01T06:13:34.313Z,1.70
2022-12-01T06:16:03.811Z,1.70
2022-12-01T06:18:33.080Z,1.70
2022-12-01T06:21:02.012Z,1.70
2022-12-01T06:23:30.764Z,1.70
2022-12-01T06:25:58.332Z,1.60
2022-12-01T06:28:25.890Z,1.60
2022-12-01T06:30:56.516Z,1.50
2022-12-01T06:33:26.679Z,1.60
2022-12-01T06:35:58.063Z,1.60
2022-12-01T06:38:26.669Z,1.60
2022-12-01T06:40:53.941Z,1.60
2022-12-01T06:43:22.542Z,1.70
2022-12-01T06:45:50.005Z,1.70
2022-12-01T06:48:17.513Z,1.60
2022-12-01T06:50:44.897Z,1.60
2022-12-01T06:53:12.199Z,1.60
2022-12-01T06:55:40.936Z,1.60
2022-12-01T06:58:08.384Z,1.60
2022-12-01T07:00:36.099Z,1.60
2022-12-01T07:03:03.501Z,1.60
2022-12-01T07:05:30.833Z,1.70
2022-12-01T07:07:59.789Z,1.70
2022-12-01T07:10:28.059Z,1.70
2022-12-01T07:12:57.614Z,1.70
2022-12-01T07:15:25.057Z,1.70
2022-12-01T07:17:52.508Z,1.70
2022-12-01T07:20:19.910Z,1.70
2022-12-01T07:22:47.351Z,1.60
2022-12-01T07:25:14.904Z,1.60
2022-12-01T07:27:42.351Z,1.60
2022-12-01T07:30:11.781Z,1.70
2022-12-01T07:32:40.285Z,1.60
2022-12-01T07:35:10.124Z,1.70
2022-12-01T07:37:37.501Z,1.70
2022-12-01T07:40:06.257Z,1.70
2022-12-01T07:42:33.678Z,1.70
2022-12-01T07:45:01.157Z,1.80
2022-12-01T07:47:29.842Z,1.80
2022-12-01T07:49:57.183Z,1.70
2022-12-01T07:52:24.690Z,1.70
2022-12-01T07:54:52.728Z,1.70
2022-12-01T07:57:20.566Z,1.70
2022-12-01T07:59:48.207Z,1.70
2022-12-01T08:02:16.017Z,1.70
2022-12-01T08:04:44.844Z,1.80
2022-12-01T08:07:12.183Z,1.70
2022-12-01T08:09:39.549Z,1.70
2022-12-01T08:12:07.520Z,1.70
2022-12-01T08:14:34.931Z,1.70
2022-12-01T08:17:02.304Z,1.70
2022-12-01T08:19:29.753Z,1.70
2022-12-01T08:21:58.549Z,1.70
2022-12-01T08:24:26.007Z,1.70
2022-12-01T08:26:53.345Z,1.70
2022-12-01T08:29:20.715Z,1.80
2022-12-01T08:31:48.100Z,1.80
2022-12-01T08:34:15.335Z,1.80
2022-12-01T08:36:42.593Z,1.80
2022-12-01T08:39:11.316Z,1.90
2022-12-01T08:41:38.573Z,1.90
2022-12-01T08:44:06.760Z,1.80
2022-12-01T08:46:35.404Z,1.80
2022-12-01T08:49:04.311Z,1.90
2022-12-01T08:51:32.349Z,1.90
2022-12-01T08:54:00.578Z,1.90
2022-12-01T08:56:32.339Z,1.80
2022-12-01T08:58:59.984Z,1.80
2022-12-01T09:01:28.217Z,1.90
2022-12-01T09:04:06.656Z,1.90
2022-12-01T09:06:37.599Z,1.90
2022-12-01T09:09:05.174Z,1.90
2022-12-01T09:11:33.809Z,2.00
2022-12-01T09:14:01.077Z,2.00
2022-12-01T09:16:28.422Z,2.00
2022-12-01T09:18:56.316Z,2.00
2022-12-01T09:21:26.266Z,2.00
2022-12-01T09:23:54.297Z,2.00
2022-12-01T09:26:22.428Z,2.00
2022-12-01T09:28:56.666Z,2.00
2022-12-01T09:31:24.568Z,2.00
2022-12-01T09:33:56.307Z,1.90
2022-12-01T09:36:23.626Z,2.00
2022-12-01T09:38:50.953Z,2.00
2022-12-01T09:41:21.572Z,2.00
2022-12-01T09:43:57.636Z,2.00
2022-12-01T09:46:30.551Z,2.00
2022-12-01T09:48:59.511Z,2.10
2022-12-01T09:51:28.911Z,2.10
2022-12-01T09:53:58.643Z,2.10
2022-12-01T09:56:29.046Z,2.10
2022-12-01T09:58:59.595Z,2.10
2022-12-01T10:01:32.944Z,2.00
2022-12-01T10:04:08.298Z,2.10
2022-12-01T10:06:39.847Z,2.10
2022-12-01T10:09:18.104Z,2.20
2022-12-01T10:11:47.147Z,2.20
2022-12-01T10:14:20.143Z,2.10
2022-12-01T10:16:58.033Z,2.10
2022-12-01T10:19:31.238Z,2.10
2022-12-01T10:22:15.793Z,2.20
2022-12-01T10:24:54.928Z,2.20
2022-12-01T10:27:37.004Z,2.20
2022-12-01T10:30:09.965Z,2.20
2022-12-01T10:32:46.808Z,2.20
2022-12-01T10:35:16.807Z,2.20
2022-12-01T10:37:45.831Z,2.30
2022-12-01T10:40:15.307Z,2.30
2022-12-01T10:42:44.357Z,2.20
2022-12-01T10:45:18.152Z,2.30
2022-12-01T10:48:08.491Z,2.30
2022-12-01T10:50:36.307Z,2.30
2022-12-01T10:53:04.544Z,2.20
2022-12-01T10:55:34.688Z,2.20
2022-12-01T10:58:13.741Z,2.20
2022-12-01T11:01:02.415Z,2.30
2022-12-01T11:03:32.073Z,2.20
2022-12-01T11:06:01.961Z,2.10
2022-12-01T11:08:36.057Z,2.10
2022-12-01T11:11:03.720Z,2.20
2022-12-01T11:13:34.319Z,2.20
2022-12-01T11:16:06.046Z,2.30
2022-12-01T11:18:35.823Z,2.30
2022-12-01T11:21:09.108Z,2.30
2022-12-01T11:23:38.375Z,2.30
2022-12-01T11:26:12.621Z,2.30
2022-12-01T11:28:43.666Z,2.30
2022-12-01T11:31:12.508Z,2.30
2022-12-01T11:33:51.257Z,2.30
2022-12-01T11:36:34.292Z,2.40
2022-12-01T11:39:02.564Z,2.40
2022-12-01T11:41:35.857Z,2.40
2022-12-01T11:44:12.835Z,2.40
2022-12-01T11:47:07.844Z,2.40
2022-12-01T11:49:47.178Z,2.30
2022-12-01T11:52:24.946Z,2.40
2022-12-01T11:54:57.490Z,2.40
2022-12-01T11:57:34.096Z,2.40
2022-12-01T12:00:05.928Z,2.30
2022-12-01T12:02:42.893Z,2.40
2022-12-01T12:05:42.478Z,2.40
2022-12-01T12:08:22.063Z,2.40
2022-12-01T12:10:56.459Z,2.40
2022-12-01T12:13:48.683Z,2.40
2022-12-01T12:16:30.252Z,2.40
2022-12-01T12:19:15.190Z,2.40
2022-12-01T12:21:51.220Z,2.40
2022-12-01T12:24:39.094Z,2.50
2022-12-01T12:27:13.797Z,2.50
2022-12-01T12:29:58.234Z,2.50
2022-12-01T12:32:44.688Z,2.50
2022-12-01T12:35:30.304Z,2.50
2022-12-01T12:38:19.993Z,2.50
2022-12-01T12:40:52.955Z,2.50
2022-12-01T12:43:30.775Z,2.50
2022-12-01T12:46:03.680Z,2.50
2022-12-01T12:49:11.599Z,2.50
2022-12-01T12:51:37.887Z,2.50
2022-12-01T12:54:17.537Z,2.50
2022-12-01T12:56:49.294Z,2.50
2022-12-01T12:59:22.638Z,2.50
2022-12-01T13:01:57.286Z,2.40
2022-12-01T13:04:32.192Z,2.40
2022-12-01T13:07:05.354Z,2.40
2022-12-01T13:09:38.424Z,2.40
2022-12-01T13:12:09.311Z,2.40
2022-12-01T13:14:40.684Z,2.50
2022-12-01T13:17:16.157Z,2.50
2022-12-01T13:19:45.954Z,2.50
2022-12-01T13:22:17.170Z,2.50
2022-12-01T13:24:44.827Z,2.50
2022-12-01T13:27:18.382Z,2.50
2022-12-01T13:29:48.503Z,2.50
2022-12-01T13:32:34.833Z,2.50
2022-12-01T13:35:06.148Z,2.50
2022-12-01T13:37:38.094Z,2.50
2022-12-01T13:40:12.323Z,2.50
2022-12-01T13:42:40.704Z,2.50
2022-12-01T13:45:16.692Z,2.50
2022-12-01T13:47:51.506Z,2.50
2022-12-01T13:51:00.776Z,2.50
2022-12-01T13:53:34.359Z,2.50
2022-12-01T13:56:21.745Z,2.50
2022-12-01T13:58:51.123Z,2.50
2022-12-01T14:01:41.817Z,2.60
2022-12-01T14:04:31.284Z,2.60
2022-12-01T14:07:31.024Z,2.60
2022-12-01T14:10:27.620Z,2.60
2022-12-01T14:12:59.445Z,2.60
2022-12-01T14:15:33.697Z,2.60
2022-12-01T14:18:05.779Z,2.60
2022-12-01T14:20:37.825Z,2.60
2022-12-01T14:23:21.313Z,2.60
2022-12-01T14:26:12.619Z,2.60
2022-12-01T14:29:10.168Z,2.50
2022-12-01T14:32:17.401Z,2.50
2022-12-01T14:34:45.045Z,2.60
2022-12-01T14:37:16.239Z,2.60
2022-12-01T14:39:45.894Z,2.60
2022-12-01T14:42:42.343Z,2.60
2022-12-01T14:45:13.413Z,2.60
2022-12-01T14:47:44.910Z,2.60
2022-12-01T14:50:17.319Z,2.60
2022-12-01T14:52:49.174Z,2.60
2022-12-01T14:55:20.700Z,2.50
2022-12-01T14:57:52.417Z,2.50
2022-12-01T15:00:22.306Z,2.50
2022-12-01T15:02:55.010Z,2.50
2022-12-01T15:05:25.126Z,2.50
2022-12-01T15:08:06.781Z,2.50
2022-12-01T15:10:50.045Z,2.50
2022-12-01T15:13:23.787Z,2.50
2022-12-01T15:15:53.284Z,2.60
2022-12-01T15:18:22.612Z,2.50
2022-12-01T15:20:55.509Z,2.60
2022-12-01T15:23:22.943Z,2.60
2022-12-01T15:25:50.427Z,2.50
2022-12-01T15:28:22.484Z,2.50
2022-12-01T15:30:53.071Z,2.40
2022-12-01T15:33:26.966Z,2.40
2022-12-01T15:35:55.830Z,2.50
2022-12-01T15:38:27.241Z,2.40
2022-12-01T15:43:54.827Z,2.40
2022-12-01T15:46:28.175Z,2.40
2022-12-01T15:49:07.629Z,2.40
2022-12-01T15:51:35.450Z,2.40
2022-12-01T15:54:03.713Z,2.40
2022-12-01T15:56:33.218Z,2.40
2022-12-01T15:59:09.308Z,2.50
2022-12-01T16:01:37.481Z,2.50
2022-12-01T16:04:07.300Z,2.50
2022-12-01T16:06:36.556Z,2.50
2022-12-01T16:09:06.107Z,2.50
2022-12-01T16:11:33.965Z,2.40
2022-12-01T16:14:04.705Z,2.50
2022-12-01T16:16:37.374Z,2.50
2022-12-01T16:19:26.407Z,2.50
2022-12-01T16:22:01.254Z,2.50
2022-12-01T16:24:31.950Z,2.50
2022-12-01T16:27:01.753Z,2.50
2022-12-01T16:29:34.553Z,2.50
2022-12-01T16:32:20.299Z,2.50
2022-12-01T16:34:50.107Z,2.50
2022-12-01T16:37:17.678Z,2.50
2022-12-01T16:39:45.537Z,2.50
2022-12-01T16:42:14.509Z,2.40
2022-12-01T16:44:45.609Z,2.40
2022-12-01T16:47:15.444Z,2.40
2022-12-01T16:49:43.006Z,2.40
2022-12-01T16:54:59.769Z,2.40
2022-12-01T16:57:28.019Z,2.40
2022-12-01T16:59:56.962Z,2.40
2022-12-01T17:02:24.544Z,2.30
2022-12-01T17:04:52.540Z,2.30
2022-12-01T17:07:20.380Z,2.30
2022-12-01T17:09:47.876Z,2.40
2022-12-01T17:12:15.244Z,2.40
2022-12-01T17:14:42.595Z,2.40
2022-12-01T17:17:11.250Z,2.40
2022-12-01T17:19:38.691Z,2.40
2022-12-01T17:22:06.115Z,2.40
2022-12-01T17:24:33.602Z,2.40
2022-12-01T17:27:01.207Z,2.40
2022-12-01T17:29:28.575Z,2.40
2022-12-01T17:31:55.863Z,2.50
2022-12-01T17:34:24.634Z,2.40
2022-12-01T17:36:53.563Z,2.40
2022-12-01T17:39:21.091Z,2.50
2022-12-01T17:41:48.564Z,2.50
2022-12-01T17:44:16.007Z,2.50
2022-12-01T17:46:43.417Z,2.40
2022-12-01T17:49:11.904Z,2.40
2022-12-01T17:51:41.734Z,2.40
2022-12-01T17:54:09.494Z,2.40
2022-12-01T17:56:36.924Z,2.40
2022-12-01T17:59:04.381Z,2.50
2022-12-01T18:01:31.947Z,2.40
2022-12-01T18:03:59.430Z,2.40
2022-12-01T18:06:27.215Z,2.50
2022-12-01T18:08:57.456Z,2.40
2022-12-01T18:11:25.048Z,2.40
2022-12-01T18:13:53.007Z,2.40
2022-12-01T18:16:22.602Z,2.40
2022-12-01T18:18:50.511Z,2.50
2022-12-01T18:21:20.139Z,2.40
2022-12-01T18:23:49.328Z,2.40
2022-12-01T18:26:19.523Z,2.40
2022-12-01T18:28:46.902Z,2.40
2022-12-01T18:31:16.068Z,2.40
2022-12-01T18:33:44.972Z,2.40
2022-12-01T18:36:13.723Z,2.40
2022-12-01T18:38:41.513Z,2.40
2022-12-01T18:41:08.918Z,2.40
2022-12-01T18:43:37.795Z,2.40
2022-12-01T18:46:06.254Z,2.40
2022-12-01T18:48:34.894Z,2.40
2022-12-01T18:51:03.905Z,2.40
2022-12-01T18:53:32.000Z,2.40
2022-12-01T18:56:02.453Z,2.40
2022-12-01T18:58:30.049Z,2.40
2022-12-01T19:00:58.996Z,2.40
2022-12-01T19:03:29.448Z,2.40
2022-12-01T19:05:56.996Z,2.40
2022-12-01T19:08:25.378Z,2.40
2022-12-01T19:10:59.383Z,2.40
2022-12-01T19:13:26.879Z,2.40
2022-12-01T19:15:54.306Z,2.40
2022-12-01T19:18:23.289Z,2.40
2022-12-01T19:20:50.973Z,2.40
2022-12-01T19:23:18.507Z,2.40
2022-12-01T19:25:45.982Z,2.40
2022-12-01T19:28:13.467Z,2.40
2022-12-01T19:30:46.743Z,2.40
2022-12-01T19:33:16.363Z,2.50
2022-12-01T19:35:45.147Z,2.50
2022-12-01T19:38:12.734Z,2.50
2022-12-01T19:40:42.094Z,2.50
2022-12-01T19:43:09.519Z,2.50
2022-12-01T19:45:37.627Z,2.50
2022-12-01T19:48:06.085Z,2.50
2022-12-01T19:50:35.539Z,2.50
2022-12-01T19:53:04.387Z,2.40
2022-12-01T19:55:31.862Z,2.40
2022-12-01T19:57:59.256Z,2.50
2022-12-01T20:00:26.695Z,2.40
2022-12-01T20:02:54.276Z,2.50
2022-12-01T20:05:21.613Z,2.50
2022-12-01T20:07:52.113Z,2.50
2022-12-01T20:10:21.293Z,2.40
2022-12-01T20:12:49.124Z,2.50
2022-12-01T20:15:16.944Z,2.50
2022-12-01T20:17:44.329Z,2.40
2022-12-01T20:20:12.596Z,2.40
2022-12-01T20:22:40.168Z,2.40
2022-12-01T20:25:09.699Z,2.40
2022-12-01T20:27:38.537Z,2.40
2022-12-01T20:30:07.263Z,2.50
2022-12-01T20:32:35.116Z,2.50
2022-12-01T20:35:02.556Z,2.50
2022-12-01T20:37:30.033Z,2.50
2022-12-01T20:39:57.843Z,2.50
2022-12-01T20:42:25.516Z,2.50
2022-12-01T20:44:54.253Z,2.50
2022-12-01T20:47:21.619Z,2.50
2022-12-01T20:49:49.901Z,2.50
2022-12-01T20:52:19.406Z,2.50
2022-12-01T20:54:46.802Z,2.50
2022-12-01T20:57:14.116Z,2.50
2022-12-01T20:59:41.517Z,2.50
2022-12-01T21:02:10.952Z,2.50
2022-12-01T21:04:38.341Z,2.50
2022-12-01T21:07:05.699Z,2.50
2022-12-01T21:09:33.017Z,2.50
2022-12-01T21:12:21.435Z,2.60
2022-12-01T21:15:02.140Z,2.60
2022-12-01T21:17:34.273Z,2.50
2022-12-01T21:20:06.996Z,2.50
2022-12-01T21:22:35.561Z,2.50
2022-12-01T21:25:10.813Z,2.60
2022-12-01T21:27:38.282Z,2.60
2022-12-01T21:30:14.293Z,2.60
2022-12-01T21:32:44.694Z,2.60
2022-12-01T21:35:18.196Z,2.60
2022-12-01T21:37:46.182Z,2.70
2022-12-01T21:40:19.722Z,2.60
2022-12-01T21:42:47.495Z,2.60
2022-12-01T21:45:20.032Z,2.50
2022-12-01T21:47:48.771Z,2.50
2022-12-01T21:50:22.256Z,2.60
2022-12-01T21:52:50.131Z,2.60
2022-12-01T21:55:36.167Z,2.60
2022-12-01T21:58:23.703Z,2.60
2022-12-01T22:00:52.685Z,2.60
2022-12-01T22:03:29.263Z,2.60
2022-12-01T22:06:28.197Z,2.60
2022-12-01T22:08:51.782Z,2.60
2022-12-01T22:11:21.892Z,2.60
2022-12-01T22:13:54.912Z,2.60
2022-12-01T22:16:26.060Z,2.60
2022-12-01T22:18:56.570Z,2.60
2022-12-01T22:21:35.843Z,2.60
2022-12-01T22:24:20.998Z,2.60
2022-12-01T22:26:51.213Z,2.60
2022-12-01T22:29:27.997Z,2.60
2022-12-01T22:32:25.405Z,2.60
2022-12-01T22:34:57.597Z,2.60
2022-12-01T22:37:34.136Z,2.60
2022-12-01T22:40:01.958Z,2.60
2022-12-01T22:42:31.664Z,2.60
2022-12-01T22:45:01.077Z,2.60
2022-12-01T22:47:32.640Z,2.60
2022-12-01T22:50:02.195Z,2.60
2022-12-01T22:52:30.417Z,2.50
2022-12-01T22:54:57.852Z,2.60
2022-12-01T22:57:29.497Z,2.60
2022-12-01T22:59:58.192Z,2.60
2022-12-01T23:02:32.076Z,2.60
2022-12-01T23:05:14.278Z,2.60
2022-12-01T23:07:43.251Z,2.60
2022-12-01T23:10:15.366Z,2.60
2022-12-01T23:12:43.896Z,2.70
2022-12-01T23:15:22.988Z,2.60
2022-12-01T23:17:51.132Z,2.60
2022-12-01T23:20:33.417Z,2.60
2022-12-01T23:23:03.354Z,2.60
2022-12-01T23:25:31.330Z,2.60
2022-12-01T23:28:01.154Z,2.50
2022-12-01T23:30:28.546Z,2.50
2022-12-01T23:33:16.686Z,2.40
2022-12-01T23:35:48.614Z,2.50
2022-12-01T23:38:18.900Z,2.50
2022-12-01T23:40:46.875Z,2.50
2022-12-01T23:43:18.906Z,2.50
2022-12-01T23:45:48.076Z,2.60
2022-12-01T23:48:20.528Z,2.50
2022-12-01T23:50:51.181Z,2.50
2022-12-01T23:53:26.399Z,2.60
2022-12-01T23:55:54.520Z,2.60
2022-12-01T23:58:21.896Z,2.60
